Time;durP1;ratioP1;P1;durP2;ratioP2;P2;SDS_P1;SDS_P2;PMS_P1;PMS_P2;Temp;Humidity;BMP_temperature;BMP_pressure;BME280_temperature;BME280_humidity;BME280_pressure;Samples;Min_cycle;Max_cycle;Signal;HPM_P1;HPM_P2
2024/01/12 00:00:17;;;;;;;5.20;2.13;;;;;;;;;;5073121;28;20261;-76
2024/01/12 00:03:04;;;;;;;7.53;2.07;;;;;;;;;;5073652;28;20241;-78
2024/01/12 00:05:31;;;;;;;4.33;2.03;;;;;;;;;;5072083;28;20274;-77
2024/01/12 00:07:59;;;;;;;6.23;1.90;;;;;;;;;;5073128;28;20229;-78
2024/01/12 00:10:26;;;;;;;2.60;1.70;;;;;;;;;;5072844;28;20229;-78
2024/01/12 00:12:53;;;;;;;2.03;1.43;;;;;;;;;;5073469;28;20207;-77
2024/01/12 00:15:20;;;;;;;2.23;1.63;;;;;;;;;;5073281;28;20209;-78
2024/01/12 00:17:47;;;;;;;3.43;1.80;;;;;;;;;;5073442;28;20713;-77
2024/01/12 00:20:14;;;;;;;1.60;1.43;;;;;;;;;;5071374;28;20230;-77
2024/01/12 00:22:42;;;;;;;8.47;2.00;;;;;;;;;;5072620;28;20226;-77
2024/01/12 00:25:09;;;;;;;3.27;1.83;;;;;;;;;;5072527;28;20211;-77
2024/01/12 00:27:36;;;;;;;7.23;1.90;;;;;;;;;;5072676;28;20207;-77
2024/01/12 00:30:03;;;;;;;3.27;1.60;;;;;;;;;;5072752;28;20231;-77
2024/01/12 00:32:31;;;;;;;2.30;1.70;;;;;;;;;;5073045;28;20214;-77
2024/01/12 00:34:58;;;;;;;6.23;1.80;;;;;;;;;;5073045;28;20254;-77
2024/01/12 00:37:25;;;;;;;3.07;1.97;;;;;;;;;;5072262;28;20195;-77
2024/01/12 00:39:52;;;;;;;3.37;1.90;;;;;;;;;;5072502;28;20965;-77
2024/01/12 00:42:19;;;;;;;4.20;1.87;;;;;;;;;;5071990;28;20203;-77
2024/01/12 00:44:46;;;;;;;3.33;1.93;;;;;;;;;;5072412;28;20207;-77
2024/01/12 00:47:14;;;;;;;2.37;1.47;;;;;;;;;;5072151;28;20206;-77
2024/01/12 00:49:41;;;;;;;2.13;1.60;;;;;;;;;;5072149;28;20289;-80
2024/01/12 00:52:08;;;;;;;2.77;2.13;;;;;;;;;;5072174;28;20207;-79
2024/01/12 00:54:35;;;;;;;2.97;1.87;;;;;;;;;;5072417;28;20231;-79
2024/01/12 00:57:02;;;;;;;2.60;1.93;;;;;;;;;;5071913;28;20206;-79
2024/01/12 00:59:29;;;;;;;2.20;1.70;;;;;;;;;;5072218;28;20211;-79
2024/01/12 01:01:58;;;;;;;3.00;1.80;;;;;;;;;;5072181;28;20604;-78
2024/01/12 01:04:25;;;;;;;3.40;1.80;;;;;;;;;;5072221;28;20191;-78
2024/01/12 01:06:53;;;;;;;2.47;1.73;;;;;;;;;;5072496;28;20207;-77
2024/01/12 01:09:20;;;;;;;1.77;1.67;;;;;;;;;;5072112;28;20245;-77
2024/01/12 01:11:52;;;;;;;2.40;1.90;;;;;;;;;;5072132;28;20198;-78
2024/01/12 01:14:20;;;;;;;4.70;2.00;;;;;;;;;;5072051;28;20210;-78
2024/01/12 01:16:48;;;;;;;5.03;1.90;;;;;;;;;;5072234;28;20237;-78
2024/01/12 01:19:15;;;;;;;2.33;2.00;;;;;;;;;;5071840;28;20668;-76
2024/01/12 01:21:42;;;;;;;4.43;2.77;;;;;;;;;;5071624;28;20207;-78
2024/01/12 01:24:09;;;;;;;4.37;2.27;;;;;;;;;;5071599;28;20218;-78
2024/01/12 01:26:36;;;;;;;1.70;1.60;;;;;;;;;;5071962;28;20252;-78
2024/01/12 01:29:03;;;;;;;3.37;2.00;;;;;;;;;;5071391;28;20223;-78
2024/01/12 01:31:31;;;;;;;19.63;8.23;;;;;;;;;;5071766;28;20226;-77
2024/01/12 01:33:58;;;;;;;10.53;6.17;;;;;;;;;;5072072;28;20229;-78
2024/01/12 01:36:25;;;;;;;4.77;2.37;;;;;;;;;;5072071;28;20243;-78
2024/01/12 01:38:52;;;;;;;5.83;3.03;;;;;;;;;;5071636;28;20203;-78
2024/01/12 01:41:20;;;;;;;6.13;2.10;;;;;;;;;;5071447;28;20222;-78
2024/01/12 01:43:46;;;;;;;10.93;3.50;;;;;;;;;;5070167;28;20572;-78
2024/01/12 01:46:14;;;;;;;7.73;2.80;;;;;;;;;;5071465;28;20211;-78
2024/01/12 01:48:41;;;;;;;6.87;3.10;;;;;;;;;;5071408;28;20211;-77
2024/01/12 01:51:08;;;;;;;7.77;3.00;;;;;;;;;;5070448;28;20265;-78
2024/01/12 01:53:35;;;;;;;6.60;4.10;;;;;;;;;;5070263;28;20202;-78
2024/01/12 01:56:03;;;;;;;4.20;2.70;;;;;;;;;;5071474;28;20203;-79
2024/01/12 01:58:30;;;;;;;4.13;2.50;;;;;;;;;;5071257;28;20210;-78
2024/01/12 02:00:58;;;;;;;5.00;2.23;;;;;;;;;;5071404;28;20547;-78
2024/01/12 02:03:26;;;;;;;7.50;2.40;;;;;;;;;;5070122;28;20214;-78
2024/01/12 02:05:56;;;;;;;2.77;2.20;;;;;;;;;;5071479;28;20196;-78
2024/01/12 02:08:25;;;;;;;2.70;1.93;;;;;;;;;;5069885;28;20203;-78
2024/01/12 02:10:53;;;;;;;1.70;1.60;;;;;;;;;;5071153;28;20258;-78
2024/01/12 02:13:20;;;;;;;1.50;1.40;;;;;;;;;;5070970;28;20219;-78
2024/01/12 02:15:47;;;;;;;13.80;2.47;;;;;;;;;;5071399;28;20195;-78
2024/01/12 02:18:15;;;;;;;10.20;3.03;;;;;;;;;;5069769;28;20210;-78
2024/01/12 02:20:44;;;;;;;6.73;3.43;;;;;;;;;;5070107;28;20211;-77
2024/01/12 02:23:11;;;;;;;11.60;3.43;;;;;;;;;;5071039;28;20206;-77
2024/01/12 02:25:38;;;;;;;4.50;2.53;;;;;;;;;;5070989;28;20199;-77
2024/01/12 02:28:05;;;;;;;1.83;1.73;;;;;;;;;;5068529;28;20216;-77
2024/01/12 02:30:33;;;;;;;5.97;1.90;;;;;;;;;;5052175;28;20569;-77
2024/01/12 02:33:05;;;;;;;2.10;1.60;;;;;;;;;;5069129;28;20286;-78
2024/01/12 02:35:32;;;;;;;3.03;1.60;;;;;;;;;;5073743;28;20224;-78
2024/01/12 02:38:00;;;;;;;2.17;1.80;;;;;;;;;;5073338;28;20211;-78
2024/01/12 02:40:27;;;;;;;3.90;2.17;;;;;;;;;;5073434;28;20230;-77
2024/01/12 02:42:54;;;;;;;2.30;2.10;;;;;;;;;;5074211;28;20195;-77
2024/01/12 02:45:21;;;;;;;2.63;1.90;;;;;;;;;;5074360;28;20265;-77
2024/01/12 02:47:48;;;;;;;5.13;2.13;;;;;;;;;;5074421;28;20203;-77
2024/01/12 02:50:15;;;;;;;3.10;2.17;;;;;;;;;;5073088;28;20223;-77
2024/01/12 02:52:43;;;;;;;5.73;1.80;;;;;;;;;;5074559;28;20223;-77
2024/01/12 02:55:10;;;;;;;3.70;1.70;;;;;;;;;;5074330;28;20211;-78
2024/01/12 02:57:37;;;;;;;3.27;1.73;;;;;;;;;;5074651;28;20192;-77
2024/01/12 03:00:05;;;;;;;2.23;1.50;;;;;;;;;;5074005;28;20219;-77
2024/01/12 03:02:34;;;;;;;1.57;1.47;;;;;;;;;;5073330;28;20238;-77
2024/01/12 03:05:01;;;;;;;3.33;1.97;;;;;;;;;;5074157;28;20187;-77
2024/01/12 03:07:28;;;;;;;5.17;2.10;;;;;;;;;;5074066;28;20300;-77
2024/01/12 03:09:56;;;;;;;2.97;1.90;;;;;;;;;;5074309;28;20665;-77
2024/01/12 03:12:23;;;;;;;1.73;1.60;;;;;;;;;;5074147;28;20187;-77
2024/01/12 03:14:50;;;;;;;3.10;2.70;;;;;;;;;;5072693;28;20570;-77
2024/01/12 03:17:17;;;;;;;3.33;2.57;;;;;;;;;;5073563;28;20203;-78
2024/01/12 03:19:44;;;;;;;7.77;3.37;;;;;;;;;;5073979;28;20203;-76
2024/01/12 03:22:11;;;;;;;7.57;2.47;;;;;;;;;;5073606;28;20210;-78
2024/01/12 03:24:39;;;;;;;1.93;1.83;;;;;;;;;;5073826;28;20215;-77
2024/01/12 03:27:06;;;;;;;4.87;2.63;;;;;;;;;;5073690;28;20214;-77
2024/01/12 03:29:33;;;;;;;11.50;2.70;;;;;;;;;;5073583;28;20217;-77
2024/01/12 03:32:00;;;;;;;4.30;2.40;;;;;;;;;;5073427;28;20274;-77
2024/01/12 03:34:27;;;;;;;5.63;3.17;;;;;;;;;;5073410;28;20202;-77
2024/01/12 03:36:54;;;;;;;7.07;3.13;;;;;;;;;;5073836;28;20257;-77
2024/01/12 03:39:22;;;;;;;9.87;3.60;;;;;;;;;;5073805;28;20198;-79
2024/01/12 03:41:49;;;;;;;6.43;3.07;;;;;;;;;;5073676;28;20207;-78
2024/01/12 03:44:16;;;;;;;6.37;3.33;;;;;;;;;;5073062;28;20211;-78
2024/01/12 03:46:43;;;;;;;8.20;3.53;;;;;;;;;;5073810;28;20198;-78
2024/01/12 03:49:10;;;;;;;20.50;7.03;;;;;;;;;;5073212;28;20203;-77
2024/01/12 03:51:38;;;;;;;14.53;5.87;;;;;;;;;;5073681;28;20223;-76
2024/01/12 03:54:05;;;;;;;5.90;3.23;;;;;;;;;;5071798;28;20199;-76
2024/01/12 03:56:32;;;;;;;4.27;2.40;;;;;;;;;;5073389;28;20203;-77
2024/01/12 03:58:59;;;;;;;5.87;2.63;;;;;;;;;;5073028;28;20207;-77
2024/01/12 04:01:26;;;;;;;8.87;3.83;;;;;;;;;;5072021;28;20204;-77
2024/01/12 04:03:54;;;;;;;10.00;3.13;;;;;;;;;;5073162;28;20241;-77
2024/01/12 04:06:21;;;;;;;6.83;3.50;;;;;;;;;;5073104;28;20235;-77
2024/01/12 04:08:48;;;;;;;3.73;2.33;;;;;;;;;;5073090;28;20195;-77
2024/01/12 04:11:22;;;;;;;7.30;2.80;;;;;;;;;;5073117;28;20219;-78
2024/01/12 04:13:49;;;;;;;4.90;2.20;;;;;;;;;;5071977;28;20256;-78
2024/01/12 04:16:16;;;;;;;4.57;2.70;;;;;;;;;;5073062;28;20203;-77
2024/01/12 04:18:44;;;;;;;7.60;3.60;;;;;;;;;;5072776;28;20200;-77
2024/01/12 04:21:12;;;;;;;9.40;3.07;;;;;;;;;;5072895;28;20200;-77
2024/01/12 04:23:40;;;;;;;7.50;3.30;;;;;;;;;;5072748;28;20211;-77
2024/01/12 04:26:07;;;;;;;8.63;3.30;;;;;;;;;;5072619;28;20208;-78
2024/01/12 04:28:34;;;;;;;4.40;2.63;;;;;;;;;;5072456;28;20215;-78
2024/01/12 04:31:02;;;;;;;6.17;2.70;;;;;;;;;;5069201;28;20577;-78
2024/01/12 04:33:30;;;;;;;7.47;3.70;;;;;;;;;;5068471;28;20207;-78
2024/01/12 04:35:58;;;;;;;15.30;4.60;;;;;;;;;;5070139;28;20228;-78
2024/01/12 04:38:26;;;;;;;5.87;2.87;;;;;;;;;;5071947;28;20208;-78
2024/01/12 04:40:53;;;;;;;6.00;3.10;;;;;;;;;;5069410;28;20713;-78
2024/01/12 04:43:21;;;;;;;4.33;2.63;;;;;;;;;;5072141;28;20192;-78
2024/01/12 04:45:48;;;;;;;4.73;2.40;;;;;;;;;;5070553;28;20187;-78
2024/01/12 04:48:15;;;;;;;6.27;3.10;;;;;;;;;;5067455;28;20211;-77
2024/01/12 04:50:42;;;;;;;22.07;6.03;;;;;;;;;;5061261;28;20228;-77
2024/01/12 04:53:10;;;;;;;12.20;3.23;;;;;;;;;;5068606;28;20705;-78
2024/01/12 04:55:37;;;;;;;3.87;2.70;;;;;;;;;;5069884;28;20207;-78
2024/01/12 04:58:04;;;;;;;4.80;2.77;;;;;;;;;;5062548;28;20203;-78
2024/01/12 05:00:31;;;;;;;4.73;3.00;;;;;;;;;;5044299;28;20269;-78
2024/01/12 05:02:58;;;;;;;9.87;3.63;;;;;;;;;;5063615;28;20699;-78
2024/01/12 05:05:25;;;;;;;12.13;4.47;;;;;;;;;;5055586;28;20219;-78
2024/01/12 05:07:53;;;;;;;8.53;3.47;;;;;;;;;;5058469;28;20202;-78
2024/01/12 05:10:20;;;;;;;8.03;3.30;;;;;;;;;;5053712;28;20227;-76
2024/01/12 05:12:47;;;;;;;8.43;3.80;;;;;;;;;;5059529;28;20293;-78
2024/01/12 05:15:14;;;;;;;5.77;3.30;;;;;;;;;;5060220;28;20250;-77
2024/01/12 05:17:42;;;;;;;17.70;5.10;;;;;;;;;;5058329;28;20227;-78
2024/01/12 05:20:09;;;;;;;12.67;4.90;;;;;;;;;;5058247;28;20326;-78
2024/01/12 05:22:37;;;;;;;8.13;3.50;;;;;;;;;;5063008;28;20319;-78
2024/01/12 05:25:04;;;;;;;8.13;3.13;;;;;;;;;;5062392;28;20224;-78
2024/01/12 05:27:32;;;;;;;6.47;2.83;;;;;;;;;;5050012;28;20232;-77
2024/01/12 05:29:59;;;;;;;7.37;3.00;;;;;;;;;;5049386;28;20242;-78
2024/01/12 05:32:31;;;;;;;17.03;4.50;;;;;;;;;;5051557;28;20231;-77
2024/01/12 05:34:58;;;;;;;15.23;4.40;;;;;;;;;;5063833;28;20227;-78
2024/01/12 05:37:26;;;;;;;9.50;4.20;;;;;;;;;;5071055;28;20234;-78
2024/01/12 05:39:53;;;;;;;9.90;3.40;;;;;;;;;;5070678;28;20226;-78
2024/01/12 05:42:20;;;;;;;10.20;4.33;;;;;;;;;;5071239;28;20235;-78
2024/01/12 05:44:47;;;;;;;9.33;5.00;;;;;;;;;;5070006;28;20211;-78
2024/01/12 05:47:14;;;;;;;21.07;5.87;;;;;;;;;;5071105;28;20239;-78
2024/01/12 05:49:42;;;;;;;11.37;4.90;;;;;;;;;;5071639;28;20684;-78
2024/01/12 05:52:09;;;;;;;15.03;5.80;;;;;;;;;;5071382;28;20246;-78
2024/01/12 05:54:36;;;;;;;14.57;5.80;;;;;;;;;;5069780;28;20222;-78
2024/01/12 05:57:04;;;;;;;17.10;9.47;;;;;;;;;;5051133;28;20235;-78
2024/01/12 05:59:32;;;;;;;26.43;11.63;;;;;;;;;;5051566;28;20216;-78
2024/01/12 06:02:00;;;;;;;76.70;32.43;;;;;;;;;;5051009;28;20716;-78
2024/01/12 06:04:27;;;;;;;20.40;9.17;;;;;;;;;;5051415;28;20243;-78
2024/01/12 06:06:54;;;;;;;36.03;15.80;;;;;;;;;;5051484;28;20298;-78
2024/01/12 06:09:21;;;;;;;51.10;24.43;;;;;;;;;;5053677;28;20234;-78
2024/01/12 06:11:49;;;;;;;49.20;20.40;;;;;;;;;;5054780;28;21084;-79
2024/01/12 06:14:16;;;;;;;19.30;8.27;;;;;;;;;;5055108;28;20743;-78
2024/01/12 06:16:44;;;;;;;43.83;17.47;;;;;;;;;;5054952;28;20573;-78
2024/01/12 06:19:10;;;;;;;10.87;6.43;;;;;;;;;;5054896;28;20734;-78
2024/01/12 06:21:39;;;;;;;14.40;4.83;;;;;;;;;;5055863;28;20196;-78
2024/01/12 06:24:08;;;;;;;8.93;4.83;;;;;;;;;;5055767;28;20196;-78
2024/01/12 06:26:35;;;;;;;14.53;7.27;;;;;;;;;;5055761;28;20665;-78
2024/01/12 06:29:02;;;;;;;21.93;11.07;;;;;;;;;;5055354;28;20188;-78
2024/01/12 06:31:31;;;;;;;35.17;12.83;;;;;;;;;;5055322;28;20970;-77
2024/01/12 06:33:58;;;;;;;19.60;9.63;;;;;;;;;;5055358;28;20219;-78
2024/01/12 06:36:25;;;;;;;14.07;7.10;;;;;;;;;;5055038;28;20239;-78
2024/01/12 06:38:52;;;;;;;10.80;6.43;;;;;;;;;;5054962;28;20215;-78
2024/01/12 06:41:23;;;;;;;12.83;7.30;;;;;;;;;;5055711;28;20273;-78
2024/01/12 06:43:50;;;;;;;27.53;9.07;;;;;;;;;;5054998;28;20707;-78
2024/01/12 06:46:17;;;;;;;15.07;5.70;;;;;;;;;;5055103;28;20522;-77
2024/01/12 06:48:44;;;;;;;11.07;4.80;;;;;;;;;;5055187;28;20218;-78
2024/01/12 06:51:11;;;;;;;8.30;4.03;;;;;;;;;;5054981;28;20232;-78
2024/01/12 06:53:38;;;;;;;14.00;5.67;;;;;;;;;;5055198;28;20200;-78
2024/01/12 06:56:06;;;;;;;16.93;6.53;;;;;;;;;;5055161;28;20192;-78
2024/01/12 06:58:33;;;;;;;11.13;5.33;;;;;;;;;;5055019;28;20216;-78
2024/01/12 07:01:01;;;;;;;9.33;3.87;;;;;;;;;;5054890;28;20262;-78
2024/01/12 07:03:28;;;;;;;8.43;4.17;;;;;;;;;;5054991;28;20246;-77
2024/01/12 07:05:55;;;;;;;9.63;4.53;;;;;;;;;;5054781;28;20215;-78
2024/01/12 07:08:25;;;;;;;11.10;5.17;;;;;;;;;;5054918;28;20219;-78
2024/01/12 07:10:52;;;;;;;10.30;4.67;;;;;;;;;;5054717;28;20231;-77
2024/01/12 07:13:19;;;;;;;50.00;14.60;;;;;;;;;;5066571;28;20210;-78
2024/01/12 07:15:46;;;;;;;159.87;45.60;;;;;;;;;;5074913;28;20215;-77
2024/01/12 07:18:13;;;;;;;149.70;41.00;;;;;;;;;;5074476;28;20199;-78
2024/01/12 07:20:40;;;;;;;95.90;29.90;;;;;;;;;;5074235;28;20204;-78
2024/01/12 07:23:07;;;;;;;61.20;20.27;;;;;;;;;;5074370;28;20199;-78
2024/01/12 07:25:37;;;;;;;73.67;24.33;;;;;;;;;;5074810;28;20212;-78
2024/01/12 07:28:05;;;;;;;47.80;14.67;;;;;;;;;;5074460;28;20212;-78
2024/01/12 07:30:33;;;;;;;13.37;6.00;;;;;;;;;;5074408;28;20268;-78
2024/01/12 07:33:00;;;;;;;26.97;11.13;;;;;;;;;;5074364;28;20656;-78
2024/01/12 07:35:28;;;;;;;51.60;19.47;;;;;;;;;;5074152;28;20554;-78
2024/01/12 07:37:55;;;;;;;27.00;11.77;;;;;;;;;;5074469;28;20608;-78
2024/01/12 07:40:22;;;;;;;17.33;7.33;;;;;;;;;;5074148;28;20253;-78
2024/01/12 07:42:49;;;;;;;17.90;7.67;;;;;;;;;;5074488;28;20231;-78
2024/01/12 07:45:16;;;;;;;15.57;7.30;;;;;;;;;;5074389;28;20264;-78
2024/01/12 07:47:43;;;;;;;19.03;7.07;;;;;;;;;;5074300;28;20701;-77
2024/01/12 07:50:11;;;;;;;16.33;6.40;;;;;;;;;;5074397;28;20207;-78
2024/01/12 07:52:38;;;;;;;17.00;5.67;;;;;;;;;;5074008;28;20227;-78
2024/01/12 07:55:05;;;;;;;16.43;7.03;;;;;;;;;;5074165;28;20257;-78
2024/01/12 07:57:32;;;;;;;30.60;8.27;;;;;;;;;;5073875;28;20207;-78
2024/01/12 07:59:59;;;;;;;28.30;9.20;;;;;;;;;;5073812;28;20268;-77
2024/01/12 08:02:27;;;;;;;26.47;10.23;;;;;;;;;;5072499;28;20542;-77
2024/01/12 08:04:54;;;;;;;17.63;7.47;;;;;;;;;;5073586;28;20210;-78
2024/01/12 08:07:21;;;;;;;16.77;7.20;;;;;;;;;;5073644;28;20231;-78
2024/01/12 08:09:49;;;;;;;24.70;9.30;;;;;;;;;;5073715;28;20195;-77
2024/01/12 08:12:16;;;;;;;15.83;6.47;;;;;;;;;;5073779;28;20220;-77
2024/01/12 08:14:43;;;;;;;15.30;7.27;;;;;;;;;;5073310;28;20198;-79
2024/01/12 08:17:10;;;;;;;16.40;6.70;;;;;;;;;;5073245;28;20199;-78
2024/01/12 08:19:38;;;;;;;15.50;7.07;;;;;;;;;;5073219;28;20212;-78
2024/01/12 08:22:05;;;;;;;23.33;8.03;;;;;;;;;;5073194;28;20210;-78
2024/01/12 08:24:32;;;;;;;29.30;9.83;;;;;;;;;;5073316;28;20210;-78
2024/01/12 08:26:59;;;;;;;25.33;9.77;;;;;;;;;;5073440;28;20225;-78
2024/01/12 08:29:27;;;;;;;24.73;10.23;;;;;;;;;;5073373;28;20210;-78
2024/01/12 08:31:54;;;;;;;20.60;9.90;;;;;;;;;;5071861;28;20756;-78
2024/01/12 08:34:22;;;;;;;21.27;8.53;;;;;;;;;;5073137;28;20202;-78
2024/01/12 08:36:49;;;;;;;16.90;8.30;;;;;;;;;;5072878;28;20235;-78
2024/01/12 08:39:17;;;;;;;21.00;9.37;;;;;;;;;;5073400;28;20249;-78
2024/01/12 08:41:44;;;;;;;29.17;11.03;;;;;;;;;;5073133;28;20199;-78
2024/01/12 08:44:12;;;;;;;18.83;8.70;;;;;;;;;;5071928;28;20629;-78
2024/01/12 08:46:39;;;;;;;24.57;9.87;;;;;;;;;;5073158;28;21327;-78
2024/01/12 08:49:06;;;;;;;42.07;15.40;;;;;;;;;;5072980;28;20241;-78
2024/01/12 08:51:33;;;;;;;32.87;11.50;;;;;;;;;;5072799;28;20235;-78
2024/01/12 08:54:01;;;;;;;22.00;8.87;;;;;;;;;;5073290;28;20199;-78
2024/01/12 08:56:28;;;;;;;35.30;12.17;;;;;;;;;;5073212;28;20204;-78
2024/01/12 08:58:55;;;;;;;29.57;11.00;;;;;;;;;;5072679;28;20199;-79
2024/01/12 09:01:24;;;;;;;22.97;10.03;;;;;;;;;;5072761;28;20539;-78
2024/01/12 09:03:51;;;;;;;32.77;11.03;;;;;;;;;;5072686;28;20203;-78
2024/01/12 09:06:23;;;;;;;28.40;10.33;;;;;;;;;;5072797;28;20237;-78
2024/01/12 09:08:51;;;;;;;22.43;9.43;;;;;;;;;;5072827;28;20203;-77
2024/01/12 09:11:18;;;;;;;30.33;10.87;;;;;;;;;;5072950;28;20219;-78
2024/01/12 09:13:45;;;;;;;27.57;9.87;;;;;;;;;;5072549;28;20203;-78
2024/01/12 09:16:12;;;;;;;43.57;12.53;;;;;;;;;;5072556;28;20587;-77
2024/01/12 09:18:42;;;;;;;37.23;12.07;;;;;;;;;;5072632;28;20207;-78
2024/01/12 09:21:14;;;;;;;33.60;11.53;;;;;;;;;;5072972;28;20214;-78
2024/01/12 09:23:43;;;;;;;28.90;11.03;;;;;;;;;;5072995;28;20206;-77
2024/01/12 09:26:11;;;;;;;30.03;10.37;;;;;;;;;;5072426;28;20207;-78
2024/01/12 09:28:39;;;;;;;23.10;9.77;;;;;;;;;;5071173;28;20200;-76
2024/01/12 09:31:06;;;;;;;28.07;10.43;;;;;;;;;;5072674;28;20194;-78
2024/01/12 09:33:34;;;;;;;27.93;11.17;;;;;;;;;;5072675;28;20199;-77
2024/01/12 09:36:03;;;;;;;25.80;10.17;;;;;;;;;;5070975;28;20315;-76
2024/01/12 09:38:30;;;;;;;25.13;11.10;;;;;;;;;;5072374;28;20257;-78
2024/01/12 09:40:58;;;;;;;26.10;11.13;;;;;;;;;;5070967;28;20207;-76
2024/01/12 09:43:29;;;;;;;33.63;12.40;;;;;;;;;;5070769;28;20230;-77
2024/01/12 09:46:02;;;;;;;28.13;11.73;;;;;;;;;;5072583;28;20215;-77
2024/01/12 09:48:33;;;;;;;27.90;10.83;;;;;;;;;;5072402;28;20204;-78
2024/01/12 09:51:00;;;;;;;25.10;9.10;;;;;;;;;;5072282;28;20206;-77
2024/01/12 09:53:28;;;;;;;20.50;8.27;;;;;;;;;;5072509;28;20192;-77
2024/01/12 09:55:55;;;;;;;19.03;8.13;;;;;;;;;;5072188;28;20199;-78
2024/01/12 09:58:37;;;;;;;19.00;7.87;;;;;;;;;;5072373;28;20199;-78
2024/01/12 10:01:04;;;;;;;30.17;8.67;;;;;;;;;;5072234;28;20261;-78
2024/01/12 10:03:32;;;;;;;22.00;9.53;;;;;;;;;;5071128;28;20195;-77
2024/01/12 10:05:59;;;;;;;25.83;9.90;;;;;;;;;;5071885;28;20656;-78
2024/01/12 10:08:36;;;;;;;25.13;8.53;;;;;;;;;;5072104;28;20218;-78
2024/01/12 10:11:04;;;;;;;27.13;9.13;;;;;;;;;;5072314;28;20208;-78
2024/01/12 10:13:32;;;;;;;18.97;7.90;;;;;;;;;;5072122;28;20207;-78
2024/01/12 10:16:01;;;;;;;24.63;8.27;;;;;;;;;;5072149;28;20211;-77
2024/01/12 10:18:28;;;;;;;21.73;7.87;;;;;;;;;;5073563;28;20211;-78
2024/01/12 10:21:00;;;;;;;16.37;7.20;;;;;;;;;;5071802;28;20199;-78
2024/01/12 10:23:27;;;;;;;17.10;7.20;;;;;;;;;;5072138;28;20215;-78
2024/01/12 10:25:58;;;;;;;26.50;10.17;;;;;;;;;;5071909;28;20207;-78
2024/01/12 10:28:32;;;;;;;30.40;11.20;;;;;;;;;;5072159;28;20192;-78
2024/01/12 10:31:06;;;;;;;22.20;9.07;;;;;;;;;;5071957;28;20214;-78
2024/01/12 10:33:35;;;;;;;18.60;8.30;;;;;;;;;;5072106;28;20242;-78
2024/01/12 10:36:10;;;;;;;22.40;8.03;;;;;;;;;;5070744;28;20231;-78
2024/01/12 10:38:38;;;;;;;29.93;9.20;;;;;;;;;;5070816;28;20203;-78
2024/01/12 10:41:09;;;;;;;27.50;10.30;;;;;;;;;;5070578;28;20207;-78
2024/01/12 10:43:38;;;;;;;22.47;9.60;;;;;;;;;;5072047;28;20200;-78
2024/01/12 10:46:11;;;;;;;19.23;7.47;;;;;;;;;;5071637;28;20307;-78
2024/01/12 10:48:55;;;;;;;20.23;8.30;;;;;;;;;;5070770;28;20203;-78
2024/01/12 10:51:24;;;;;;;18.57;7.50;;;;;;;;;;5070526;28;20226;-78
2024/01/12 10:54:00;;;;;;;27.53;9.90;;;;;;;;;;5070705;28;20203;-78
2024/01/12 10:56:28;;;;;;;24.03;8.13;;;;;;;;;;5075071;28;20314;-78
2024/01/12 10:58:56;;;;;;;13.70;6.30;;;;;;;;;;5074044;28;20199;-77
2024/01/12 11:01:24;;;;;;;17.17;6.23;;;;;;;;;;5075229;28;20265;-78
2024/01/12 11:03:51;;;;;;;15.47;6.60;;;;;;;;;;5073942;28;20200;-77
2024/01/12 11:06:19;;;;;;;33.87;8.57;;;;;;;;;;5073775;28;20199;-77
2024/01/12 11:08:50;;;;;;;26.33;7.53;;;;;;;;;;5074829;28;20215;-78
2024/01/12 11:11:21;;;;;;;20.37;7.30;;;;;;;;;;5074026;28;20280;-77
2024/01/12 11:13:49;;;;;;;14.80;6.30;;;;;;;;;;5073765;28;20202;-78
2024/01/12 11:16:17;;;;;;;13.27;4.90;;;;;;;;;;5074961;28;20214;-77
2024/01/12 11:18:44;;;;;;;11.27;5.70;;;;;;;;;;5075841;28;20203;-78
2024/01/12 11:21:11;;;;;;;13.90;7.87;;;;;;;;;;5075006;28;20215;-77
2024/01/12 11:23:41;;;;;;;26.37;8.93;;;;;;;;;;5073656;28;20203;-77
2024/01/12 11:26:08;;;;;;;16.27;6.23;;;;;;;;;;5074753;28;20204;-77
2024/01/12 11:28:37;;;;;;;13.90;6.33;;;;;;;;;;5073458;28;20202;-77
2024/01/12 11:31:05;;;;;;;17.70;7.40;;;;;;;;;;5056851;28;20213;-78
2024/01/12 11:33:43;;;;;;;37.43;13.53;;;;;;;;;;5074463;28;20227;-77
2024/01/12 11:36:14;;;;;;;28.70;9.70;;;;;;;;;;5074546;28;20238;-78
2024/01/12 11:38:42;;;;;;;18.43;6.77;;;;;;;;;;5074662;28;20260;-77
2024/01/12 11:41:13;;;;;;;14.90;6.17;;;;;;;;;;5074513;28;20195;-77
2024/01/12 11:43:47;;;;;;;29.37;11.00;;;;;;;;;;5074540;28;20590;-78
2024/01/12 11:46:14;;;;;;;10.70;5.00;;;;;;;;;;5074259;28;20203;-78
2024/01/12 11:48:44;;;;;;;13.97;5.37;;;;;;;;;;5074319;28;20199;-77
2024/01/12 11:51:19;;;;;;;22.40;6.33;;;;;;;;;;5074590;28;20253;-78
2024/01/12 11:53:52;;;;;;;12.73;5.20;;;;;;;;;;5074120;28;20241;-77
2024/01/12 11:56:20;;;;;;;10.00;4.70;;;;;;;;;;5074223;28;20199;-78
2024/01/12 11:58:48;;;;;;;13.37;4.90;;;;;;;;;;5073953;28;20278;-77
2024/01/12 12:01:15;;;;;;;18.00;5.77;;;;;;;;;;5073865;28;20562;-77
2024/01/12 12:03:44;;;;;;;24.90;7.03;;;;;;;;;;5073787;28;20672;-77
2024/01/12 12:06:14;;;;;;;17.33;6.03;;;;;;;;;;5073366;28;20204;-78
2024/01/12 12:08:42;;;;;;;16.23;6.23;;;;;;;;;;5072628;28;20214;-78
2024/01/12 12:11:12;;;;;;;14.57;5.70;;;;;;;;;;5072400;28;20207;-77
2024/01/12 12:13:40;;;;;;;24.67;8.00;;;;;;;;;;5073886;28;20231;-77
2024/01/12 12:16:08;;;;;;;10.80;4.63;;;;;;;;;;5073814;28;20203;-78
2024/01/12 12:18:35;;;;;;;13.13;5.20;;;;;;;;;;5072543;28;20273;-78
2024/01/12 12:21:03;;;;;;;21.83;7.23;;;;;;;;;;5072536;28;20199;-77
2024/01/12 12:23:30;;;;;;;21.27;6.63;;;;;;;;;;5069407;28;20203;-78
2024/01/12 12:25:59;;;;;;;24.00;8.13;;;;;;;;;;5072730;28;20203;-77
2024/01/12 12:28:27;;;;;;;14.40;6.70;;;;;;;;;;5072740;28;20734;-78
2024/01/12 12:30:55;;;;;;;15.13;5.47;;;;;;;;;;5073157;28;20211;-78
2024/01/12 12:33:24;;;;;;;22.47;6.50;;;;;;;;;;5073268;28;20215;-77
2024/01/12 12:36:07;;;;;;;25.13;7.70;;;;;;;;;;5071696;28;20269;-78
2024/01/12 12:38:37;;;;;;;20.67;5.80;;;;;;;;;;5072376;28;20195;-78
2024/01/12 12:41:08;;;;;;;14.07;5.13;;;;;;;;;;5071946;28;20285;-78
2024/01/12 12:43:37;;;;;;;18.63;6.30;;;;;;;;;;5073466;28;20248;-78
2024/01/12 12:46:05;;;;;;;12.47;5.97;;;;;;;;;;5073033;28;20599;-78
2024/01/12 12:48:32;;;;;;;9.00;4.50;;;;;;;;;;5073297;28;20191;-78
2024/01/12 12:51:00;;;;;;;18.30;6.37;;;;;;;;;;5072928;28;20599;-77
2024/01/12 12:53:27;;;;;;;24.73;6.07;;;;;;;;;;5073405;28;20215;-77
2024/01/12 12:55:54;;;;;;;16.63;5.83;;;;;;;;;;5073068;28;20667;-78
2024/01/12 12:58:22;;;;;;;13.73;4.63;;;;;;;;;;5073228;28;20207;-78
2024/01/12 13:00:49;;;;;;;14.03;4.73;;;;;;;;;;5072871;28;20284;-78
2024/01/12 13:03:16;;;;;;;12.73;5.97;;;;;;;;;;5071687;28;20200;-77
2024/01/12 13:05:43;;;;;;;18.83;6.60;;;;;;;;;;5072683;28;20211;-77
2024/01/12 13:08:11;;;;;;;15.53;5.43;;;;;;;;;;5072678;28;20203;-78
2024/01/12 13:10:39;;;;;;;12.93;5.37;;;;;;;;;;5072647;28;20297;-77
2024/01/12 13:13:06;;;;;;;22.17;6.37;;;;;;;;;;5072642;28;20223;-76
2024/01/12 13:15:34;;;;;;;12.67;4.87;;;;;;;;;;5072678;28;20234;-77
2024/01/12 13:18:01;;;;;;;10.77;4.17;;;;;;;;;;5071817;28;20199;-77
2024/01/12 13:20:29;;;;;;;11.27;5.37;;;;;;;;;;5072653;28;20257;-77
2024/01/12 13:22:57;;;;;;;15.77;5.77;;;;;;;;;;5072451;28;20576;-77
2024/01/12 13:25:24;;;;;;;20.67;6.07;;;;;;;;;;5071090;28;20207;-78
2024/01/12 13:27:51;;;;;;;11.73;4.37;;;;;;;;;;5071237;28;20321;-78
2024/01/12 13:30:18;;;;;;;9.30;4.00;;;;;;;;;;5066354;28;20304;-77
2024/01/12 13:32:46;;;;;;;20.17;6.37;;;;;;;;;;5068570;28;20216;-78
2024/01/12 13:35:13;;;;;;;21.57;6.40;;;;;;;;;;5065904;28;20254;-77
2024/01/12 13:37:41;;;;;;;20.03;6.87;;;;;;;;;;5069715;28;20222;-77
2024/01/12 13:40:11;;;;;;;25.30;6.90;;;;;;;;;;5063447;28;20755;-76
2024/01/12 13:42:58;;;;;;;15.73;5.60;;;;;;;;;;5051593;28;20235;-77
2024/01/12 13:45:26;;;;;;;11.40;4.17;;;;;;;;;;5062601;28;20219;-77
2024/01/12 13:47:53;;;;;;;7.63;3.83;;;;;;;;;;5063999;28;20645;-77
2024/01/12 13:50:21;;;;;;;19.57;6.53;;;;;;;;;;5067137;28;20648;-77
2024/01/12 13:52:48;;;;;;;12.53;3.83;;;;;;;;;;5069385;28;20219;-77
2024/01/12 13:55:15;;;;;;;9.00;4.83;;;;;;;;;;5069660;28;20230;-77
2024/01/12 13:57:42;;;;;;;9.53;4.30;;;;;;;;;;5071558;28;20738;-78
2024/01/12 14:00:12;;;;;;;14.60;5.67;;;;;;;;;;5071155;28;20753;-77
2024/01/12 14:02:41;;;;;;;17.67;6.47;;;;;;;;;;5071648;28;20719;-77
2024/01/12 14:05:10;;;;;;;18.17;6.20;;;;;;;;;;5069564;28;20227;-77
2024/01/12 14:07:44;;;;;;;18.53;7.20;;;;;;;;;;5070223;28;20276;-77
2024/01/12 14:10:11;;;;;;;11.07;5.80;;;;;;;;;;5069780;28;20728;-77
2024/01/12 14:12:39;;;;;;;13.13;5.70;;;;;;;;;;5071548;28;20219;-76
2024/01/12 14:15:06;;;;;;;11.63;5.43;;;;;;;;;;5069656;28;20223;-77
2024/01/12 14:17:34;;;;;;;29.40;8.13;;;;;;;;;;5072102;28;20223;-77
2024/01/12 14:20:03;;;;;;;18.70;8.33;;;;;;;;;;5069556;28;20367;-78
2024/01/12 14:22:30;;;;;;;23.27;8.33;;;;;;;;;;5071144;28;20317;-77
2024/01/12 14:24:58;;;;;;;30.97;9.40;;;;;;;;;;5071353;28;20239;-78
2024/01/12 14:27:25;;;;;;;26.87;8.73;;;;;;;;;;5071606;28;20230;-77
2024/01/12 14:29:52;;;;;;;19.53;7.00;;;;;;;;;;5075005;28;20239;-77
2024/01/12 14:32:22;;;;;;;19.17;6.73;;;;;;;;;;5073598;28;20224;-76
2024/01/12 14:34:49;;;;;;;16.50;5.60;;;;;;;;;;5074301;28;20255;-77
2024/01/12 14:37:16;;;;;;;22.70;8.47;;;;;;;;;;5074468;28;20239;-78